Time;durP1;ratioP1;P1;durP2;ratioP2;P2;SDS_P1;SDS_P2;PMS_P1;PMS_P2;Temp;Humidity;BMP_temperature;BMP_pressure;BME280_temperature;BME280_humidity;BME280_pressure;Samples;Min_cycle;Max_cycle;Signal;HPM_P1;HPM_P2
2021/08/20 00:00:50;;;;;;;2.55;1.83;;;;;;;15.43;100.00;95925.19;4914446;29;20999;-77
2021/08/20 00:03:15;;;;;;;2.40;1.58;;;;;;;15.36;100.00;95926.59;4915375;29;20932;-77
2021/08/20 00:05:41;;;;;;;5.25;1.80;;;;;;;15.41;100.00;95922.66;4914437;29;20728;-76
2021/08/20 00:08:06;;;;;;;2.77;1.60;;;;;;;15.53;100.00;95920.84;4915506;29;20440;-77
2021/08/20 00:10:32;;;;;;;2.50;1.60;;;;;;;15.60;100.00;95922.03;4915299;29;20784;-77
2021/08/20 00:12:57;;;;;;;2.60;1.63;;;;;;;15.65;100.00;95911.22;4915405;29;20431;-76
2021/08/20 00:15:23;;;;;;;1.50;1.33;;;;;;;15.70;100.00;95915.16;4915162;29;21078;-76
2021/08/20 00:17:50;;;;;;;2.00;1.58;;;;;;;15.74;100.00;95910.50;4915182;29;20504;-77
2021/08/20 00:20:15;;;;;;;1.85;1.42;;;;;;;15.85;100.00;95913.06;4915376;29;20416;-77
2021/08/20 00:22:41;;;;;;;2.17;1.35;;;;;;;16.00;100.00;95921.44;4913906;29;20449;-77
2021/08/20 00:25:07;;;;;;;2.05;1.48;;;;;;;15.91;100.00;95922.19;4915013;29;20512;-77
2021/08/20 00:27:33;;;;;;;2.43;1.50;;;;;;;15.87;100.00;95923.38;4915243;29;20514;-77
2021/08/20 00:29:58;;;;;;;3.07;1.40;;;;;;;15.82;100.00;95917.72;4915159;29;20800;-77
2021/08/20 00:32:24;;;;;;;2.33;1.50;;;;;;;15.86;100.00;95919.13;4913736;29;20496;-76
2021/08/20 00:34:50;;;;;;;1.65;1.33;;;;;;;16.02;100.00;95916.94;4913753;29;20449;-77
2021/08/20 00:37:16;;;;;;;2.78;1.60;;;;;;;16.22;100.00;95910.03;4914749;29;20456;-77
2021/08/20 00:39:42;;;;;;;1.83;1.37;;;;;;;16.33;100.00;95914.38;4914896;29;20799;-76
2021/08/20 00:42:08;;;;;;;4.13;1.38;;;;;;;16.34;100.00;95909.00;4913703;29;20465;-77
2021/08/20 00:44:34;;;;;;;2.33;1.30;;;;;;;16.08;100.00;95916.41;4915292;29;20491;-77
2021/08/20 00:46:59;;;;;;;1.80;1.30;;;;;;;15.83;100.00;95914.97;4914367;29;20433;-77
2021/08/20 00:49:24;;;;;;;1.83;1.60;;;;;;;15.74;100.00;95918.34;4913378;29;20440;-78
2021/08/20 00:51:51;;;;;;;2.63;1.47;;;;;;;15.75;100.00;95919.16;4914878;29;20919;-77
2021/08/20 00:54:18;;;;;;;4.03;1.70;;;;;;;15.71;100.00;95916.78;4914707;29;20433;-77
2021/08/20 00:56:45;;;;;;;1.70;1.40;;;;;;;15.71;100.00;95915.97;4913451;29;20508;-77
2021/08/20 00:59:11;;;;;;;3.65;1.90;;;;;;;15.59;100.00;95909.94;4914553;29;20444;-77
2021/08/20 01:01:37;;;;;;;2.57;1.50;;;;;;;15.57;100.00;95911.81;4913375;29;20432;-77
2021/08/20 01:04:03;;;;;;;4.10;1.83;;;;;;;15.65;100.00;95913.84;4914684;29;20431;-77
2021/08/20 01:06:29;;;;;;;1.55;1.42;;;;;;;15.70;100.00;95912.53;4914496;29;20931;-78
2021/08/20 01:08:57;;;;;;;2.70;1.55;;;;;;;15.73;100.00;95909.69;4914515;29;20931;-77
2021/08/20 01:11:24;;;;;;;3.05;1.55;;;;;;;15.93;100.00;95908.03;4913253;29;20523;-77
2021/08/20 01:13:50;;;;;;;3.88;1.60;;;;;;;16.07;100.00;95908.72;4914625;29;20453;-77
2021/08/20 01:16:15;;;;;;;3.30;1.30;;;;;;;15.93;100.00;95908.03;4916105;29;20843;-77
2021/08/20 01:18:41;;;;;;;4.13;1.43;;;;;;;15.78;100.00;95911.91;4917219;29;20848;-77
2021/08/20 01:21:10;;;;;;;1.75;1.35;;;;;;;15.77;100.00;95899.81;4917202;29;20428;-76
2021/08/20 01:23:36;;;;;;;1.92;1.50;;;;;;;15.78;100.00;95900.63;4918396;29;20421;-77
2021/08/20 01:26:03;;;;;;;3.45;1.63;;;;;;;15.73;100.00;95898.41;4918094;29;20784;-77
2021/08/20 01:28:29;;;;;;;1.85;1.40;;;;;;;15.84;100.00;95902.75;4918347;29;20433;-77
2021/08/20 01:30:59;;;;;;;3.05;1.60;;;;;;;15.84;100.00;95906.19;4918290;29;20436;-78
2021/08/20 01:33:24;;;;;;;1.98;1.65;;;;;;;15.82;100.00;95899.44;4918469;29;20836;-78
2021/08/20 01:35:49;;;;;;;2.70;1.73;;;;;;;15.85;100.00;95904.41;4917915;29;20429;-76
2021/08/20 01:38:15;;;;;;;4.10;1.50;;;;;;;15.87;100.00;95897.25;4918109;29;20509;-76
2021/08/20 01:40:40;;;;;;;5.50;1.80;;;;;;;15.84;100.00;95895.75;4916810;29;20452;-77
2021/08/20 01:43:07;;;;;;;5.83;1.87;;;;;;;15.85;100.00;95907.03;4918085;29;20429;-77
2021/08/20 01:45:33;;;;;;;1.98;1.25;;;;;;;15.86;100.00;95900.84;4917685;29;20860;-78
2021/08/20 01:47:58;;;;;;;5.55;1.52;;;;;;;15.89;100.00;95901.41;4916544;29;20436;-77
2021/08/20 01:50:23;;;;;;;3.10;1.40;;;;;;;15.90;100.00;95891.78;4918095;29;20444;-77
2021/08/20 01:52:49;;;;;;;1.90;1.53;;;;;;;15.90;100.00;95897.00;4918218;29;20428;-76
2021/08/20 01:55:14;;;;;;;3.43;1.50;;;;;;;15.83;100.00;95899.28;4917661;29;20432;-78
2021/08/20 01:57:41;;;;;;;2.08;1.63;;;;;;;15.85;100.00;95893.97;4917805;29;20433;-77
2021/08/20 02:00:09;;;;;;;2.25;1.52;;;;;;;15.84;100.00;95894.94;4916527;29;20441;-77
2021/08/20 02:02:34;;;;;;;1.80;1.50;;;;;;;15.83;100.00;95894.06;4917590;29;20979;-78
2021/08/20 02:05:00;;;;;;;2.60;1.30;;;;;;;15.79;100.00;95902.28;4916422;29;20473;-77
2021/08/20 02:07:25;;;;;;;4.73;1.37;;;;;;;15.82;100.00;95896.81;4917366;29;20480;-77
2021/08/20 02:09:51;;;;;;;3.60;1.50;;;;;;;15.87;100.00;95902.47;4917491;29;20461;-77
2021/08/20 02:12:16;;;;;;;3.92;1.52;;;;;;;15.83;100.00;95901.91;4917463;29;20429;-76
2021/08/20 02:14:42;;;;;;;4.73;1.57;;;;;;;15.82;100.00;95902.03;4917725;29;20484;-76
2021/08/20 02:17:08;;;;;;;5.90;1.77;;;;;;;15.84;100.00;95897.53;4917270;29;20422;-77
2021/08/20 02:19:34;;;;;;;3.95;1.55;;;;;;;15.85;100.00;95901.81;4917511;29;20432;-77
2021/08/20 02:22:00;;;;;;;1.43;1.30;;;;;;;15.78;100.00;95904.06;4917270;29;20425;-77
2021/08/20 02:24:25;;;;;;;3.83;1.60;;;;;;;15.79;100.00;95904.91;4919069;29;20451;-77
2021/08/20 02:26:51;;;;;;;4.70;1.43;;;;;;;15.75;100.00;95900.88;4920000;29;20436;-76
2021/08/20 02:29:16;;;;;;;1.98;1.52;;;;;;;15.75;100.00;95900.88;4921295;29;20421;-77
2021/08/20 02:31:42;;;;;;;1.63;1.47;;;;;;;15.79;100.00;95900.50;4919042;29;20808;-77
2021/08/20 02:34:08;;;;;;;5.23;1.60;;;;;;;15.84;100.00;95905.38;4917729;29;20464;-77
2021/08/20 02:36:34;;;;;;;2.22;1.30;;;;;;;16.01;100.00;95901.38;4917094;29;20451;-77
2021/08/20 02:38:59;;;;;;;2.20;1.40;;;;;;;16.15;100.00;95895.84;4917262;29;21003;-76
2021/08/20 02:41:25;;;;;;;3.90;1.40;;;;;;;15.93;100.00;95899.38;4915861;29;20943;-77
2021/08/20 02:43:50;;;;;;;1.63;1.17;;;;;;;15.75;100.00;95899.09;4916893;29;20440;-77
2021/08/20 02:46:16;;;;;;;7.67;1.40;;;;;;;15.69;100.00;95900.44;4915465;29;20440;-76
2021/08/20 02:48:42;;;;;;;3.77;1.50;;;;;;;15.68;100.00;95897.94;4917004;29;20518;-76
2021/08/20 02:51:09;;;;;;;1.48;1.38;;;;;;;15.69;100.00;95902.22;4933167;23;20425;-77
2021/08/20 02:53:36;;;;;;;4.95;1.60;;;;;;;15.56;100.00;95912.78;4936236;29;20435;-75
2021/08/20 02:56:01;;;;;;;7.83;1.63;;;;;;;15.60;100.00;95902.91;4935716;29;20507;-75
2021/08/20 02:58:27;;;;;;;1.87;1.33;;;;;;;15.65;100.00;95904.25;4935734;29;20427;-74
2021/08/20 03:00:52;;;;;;;2.27;1.47;;;;;;;15.64;100.00;95905.16;4935728;29;20434;-75
2021/08/20 03:03:17;;;;;;;2.03;1.48;;;;;;;15.63;100.00;95900.91;4935709;29;20423;-75
2021/08/20 03:05:43;;;;;;;2.80;1.43;;;;;;;15.65;100.00;95896.44;4935558;29;20522;-75
2021/08/20 03:08:10;;;;;;;1.30;1.20;;;;;;;15.65;100.00;95893.81;4935739;29;20443;-75
2021/08/20 03:10:36;;;;;;;1.30;1.17;;;;;;;15.66;100.00;95892.84;4935572;29;20459;-75
2021/08/20 03:13:02;;;;;;;1.75;1.38;;;;;;;15.66;100.00;95898.06;4935596;29;20542;-75
2021/08/20 03:15:27;;;;;;;2.17;1.42;;;;;;;15.67;100.00;95893.69;4934025;29;20893;-75
2021/08/20 03:17:53;;;;;;;2.08;1.50;;;;;;;15.67;100.00;95891.88;4934322;29;20514;-74
2021/08/20 03:20:18;;;;;;;1.60;1.10;;;;;;;15.66;100.00;95890.25;4935372;29;20474;-73
2021/08/20 03:22:43;;;;;;;1.67;1.37;;;;;;;15.67;100.00;95893.69;4935470;29;20427;-73
2021/08/20 03:25:11;;;;;;;1.45;1.20;;;;;;;15.71;100.00;95889.84;4934916;29;20439;-73
2021/08/20 03:27:37;;;;;;;2.83;1.43;;;;;;;15.82;100.00;95886.38;4935158;29;20439;-73
2021/08/20 03:30:03;;;;;;;11.23;1.67;;;;;;;15.77;100.00;95893.78;4935227;29;20688;-73
2021/08/20 03:32:28;;;;;;;2.60;1.30;;;;;;;15.68;100.00;95885.75;4935111;29;20518;-74
2021/08/20 03:34:54;;;;;;;4.05;1.55;;;;;;;15.65;100.00;95885.97;4935023;29;20506;-73
2021/08/20 03:37:20;;;;;;;2.22;1.40;;;;;;;15.58;100.00;95886.56;4934804;29;20451;-74
2021/08/20 03:39:46;;;;;;;1.92;1.40;;;;;;;15.46;100.00;95891.81;4934974;29;20479;-74
2021/08/20 03:42:12;;;;;;;2.45;1.52;;;;;;;15.42;100.00;95898.22;4934948;29;21192;-74
2021/08/20 03:44:38;;;;;;;2.28;1.33;;;;;;;15.23;100.00;95901.47;4935298;29;20523;-74
2021/08/20 03:47:04;;;;;;;1.33;1.13;;;;;;;15.13;100.00;95900.56;4934573;29;20514;-74
2021/08/20 03:49:29;;;;;;;2.90;1.40;;;;;;;15.06;100.00;95895.94;4935046;29;20472;-74
2021/08/20 03:51:54;;;;;;;1.40;1.23;;;;;;;14.98;100.00;95904.34;4934724;29;20482;-74
2021/08/20 03:54:20;;;;;;;1.90;1.27;;;;;;;15.01;100.00;95896.28;4933599;29;20857;-75
2021/08/20 03:56:45;;;;;;;2.35;1.17;;;;;;;15.14;100.00;95902.22;4934361;29;20431;-74
2021/08/20 03:59:12;;;;;;;1.65;1.30;;;;;;;15.25;100.00;95902.19;4933448;29;20462;-73
2021/08/20 04:01:38;;;;;;;3.50;1.20;;;;;;;15.31;100.00;95900.03;4934390;29;20423;-73
2021/08/20 04:04:03;;;;;;;2.20;1.30;;;;;;;15.35;100.00;95902.28;4934547;29;20490;-73
2021/08/20 04:06:29;;;;;;;1.97;1.37;;;;;;;15.37;100.00;95910.00;4934113;29;20846;-73
2021/08/20 04:08:54;;;;;;;2.30;1.50;;;;;;;15.36;100.00;95911.78;4934559;29;20968;-73
2021/08/20 04:11:20;;;;;;;2.88;1.50;;;;;;;15.38;100.00;95915.06;4932988;29;20431;-73
2021/08/20 04:13:45;;;;;;;2.60;1.30;;;;;;;15.40;100.00;95905.34;4934328;29;20438;-73
2021/08/20 04:16:12;;;;;;;2.50;1.53;;;;;;;15.25;100.00;95903.97;4934228;29;20431;-74
2021/08/20 04:18:40;;;;;;;1.98;1.38;;;;;;;15.06;100.00;95912.41;4934703;29;20419;-74
2021/08/20 04:21:06;;;;;;;2.13;1.33;;;;;;;14.99;100.00;95912.06;4934221;29;20929;-74
2021/08/20 04:23:31;;;;;;;4.00;1.80;;;;;;;14.91;100.00;95914.44;4934122;29;20438;-74
2021/08/20 04:25:57;;;;;;;3.20;1.52;;;;;;;14.87;100.00;95920.00;4934014;29;20929;-73
2021/08/20 04:28:22;;;;;;;2.17;1.43;;;;;;;14.90;100.00;95917.97;4932962;29;20937;-74
2021/08/20 04:30:48;;;;;;;2.57;1.40;;;;;;;14.98;100.00;95914.78;4933458;29;20988;-76
2021/08/20 04:33:14;;;;;;;1.27;1.17;;;;;;;15.01;100.00;95917.97;4933953;29;20419;-74
2021/08/20 04:35:40;;;;;;;2.33;1.77;;;;;;;15.09;100.00;95921.75;4932949;29;20558;-76
2021/08/20 04:38:05;;;;;;;2.67;1.70;;;;;;;15.17;100.00;95932.44;4934212;29;20834;-75
2021/08/20 04:40:31;;;;;;;2.33;1.70;;;;;;;15.25;100.00;95930.06;4933621;29;20439;-76
2021/08/20 04:42:56;;;;;;;1.70;1.40;;;;;;;15.30;100.00;95922.69;4933617;29;20436;-76
2021/08/20 04:45:22;;;;;;;5.40;1.50;;;;;;;15.31;100.00;95919.13;4934629;29;20450;-76
2021/08/20 04:47:49;;;;;;;3.05;1.55;;;;;;;15.35;100.00;95924.94;4934531;29;20457;-76
2021/08/20 04:50:16;;;;;;;2.38;1.85;;;;;;;15.37;100.00;95929.09;4934379;29;20437;-79
2021/08/20 04:52:41;;;;;;;1.88;1.58;;;;;;;15.35;100.00;95927.53;4934675;29;20423;-76
2021/08/20 04:55:08;;;;;;;2.40;1.52;;;;;;;15.36;100.00;95927.44;4933199;29;20793;-75
2021/08/20 04:57:33;;;;;;;1.60;1.42;;;;;;;15.37;100.00;95930.88;4934452;29;20431;-75
2021/08/20 04:59:59;;;;;;;2.67;1.65;;;;;;;15.40;100.00;95922.81;4934435;29;20424;-75
2021/08/20 05:02:26;;;;;;;3.67;1.57;;;;;;;15.36;100.00;95926.59;4934425;29;20434;-76
2021/08/20 05:04:52;;;;;;;1.40;1.20;;;;;;;15.38;100.00;95929.91;4934389;29;20847;-75
2021/08/20 05:07:19;;;;;;;2.03;1.40;;;;;;;15.35;100.00;95935.38;4934695;29;20523;-75
2021/08/20 05:09:45;;;;;;;1.73;1.42;;;;;;;15.35;100.00;95937.97;4934774;29;20928;-75
2021/08/20 05:12:10;;;;;;;1.30;1.20;;;;;;;15.39;100.00;95942.03;4934454;29;20427;-75
2021/08/20 05:14:36;;;;;;;2.00;1.43;;;;;;;15.37;100.00;95943.91;4934509;29;20790;-75
2021/08/20 05:17:01;;;;;;;3.07;1.57;;;;;;;15.26;100.00;95944.75;4934382;29;20455;-75
2021/08/20 05:19:27;;;;;;;1.80;1.50;;;;;;;15.22;100.00;95952.00;4933184;29;20435;-75
2021/08/20 05:21:52;;;;;;;1.80;1.50;;;;;;;15.24;100.00;95955.34;4933864;29;20435;-75
2021/08/20 05:24:19;;;;;;;1.50;1.40;;;;;;;15.18;100.00;95960.19;4933149;29;20429;-74
2021/08/20 05:26:44;;;;;;;4.63;1.92;;;;;;;15.30;100.00;95961.84;4932988;28;20423;-74
2021/08/20 05:29:10;;;;;;;5.25;1.70;;;;;;;15.27;100.00;95953.41;4933853;29;20923;-74
2021/08/20 05:31:35;;;;;;;2.85;1.83;;;;;;;15.19;100.00;95964.44;4934195;29;20423;-75
2021/08/20 05:34:00;;;;;;;3.30;1.70;;;;;;;15.06;100.00;95974.19;4933927;29;20498;-75
2021/08/20 05:36:27;;;;;;;3.20;1.53;;;;;;;15.20;100.00;95977.41;4919668;29;20433;-75
2021/08/20 05:38:53;;;;;;;2.17;1.60;;;;;;;15.24;100.00;95972.78;4931258;29;20789;-75
2021/08/20 05:41:19;;;;;;;3.00;1.33;;;;;;;15.28;100.00;95981.16;4933646;29;20443;-74
2021/08/20 05:43:45;;;;;;;4.72;1.30;;;;;;;15.30;100.00;95979.28;4932354;29;20534;-69
2021/08/20 05:46:10;;;;;;;1.92;1.38;;;;;;;15.31;100.00;95986.13;4932834;29;20515;-74
2021/08/20 05:48:36;;;;;;;2.10;1.60;;;;;;;15.29;100.00;95982.84;4933600;29;21184;-75
2021/08/20 05:51:01;;;;;;;2.73;1.53;;;;;;;15.38;100.00;95982.94;4932391;29;20458;-73
2021/08/20 05:53:27;;;;;;;2.77;1.60;;;;;;;15.45;100.00;95988.50;4928200;29;20433;-73
2021/08/20 05:55:52;;;;;;;3.67;1.70;;;;;;;15.49;100.00;95995.13;4914119;29;20425;-72
2021/08/20 05:58:19;;;;;;;2.27;1.73;;;;;;;15.55;100.00;95991.22;4914332;29;20875;-73
2021/08/20 06:00:44;;;;;;;3.87;1.53;;;;;;;15.62;100.00;95993.22;4914278;29;20437;-73
2021/08/20 06:03:10;;;;;;;1.70;1.60;;;;;;;15.66;100.00;95989.47;4918971;29;20435;-73
2021/08/20 06:05:39;;;;;;;4.90;1.53;;;;;;;15.65;100.00;95994.78;4936702;29;20458;-72
2021/08/20 06:08:04;;;;;;;2.13;1.60;;;;;;;15.78;100.00;95992.88;4935602;29;20431;-73
2021/08/20 06:10:31;;;;;;;2.83;1.70;;;;;;;15.89;100.00;96000.66;4935836;29;20510;-74
2021/08/20 06:12:57;;;;;;;2.00;1.58;;;;;;;15.95;100.00;96000.19;4935138;29;20942;-73
2021/08/20 06:15:23;;;;;;;3.57;1.80;;;;;;;16.02;100.00;96003.13;4917417;29;20436;-73
2021/08/20 06:17:50;;;;;;;3.13;1.67;;;;;;;15.99;100.00;95990.31;4917629;29;20421;-73
2021/08/20 06:20:15;;;;;;;2.15;1.75;;;;;;;16.03;100.00;95993.50;4917805;29;20947;-73
2021/08/20 06:22:41;;;;;;;3.45;2.10;;;;;;;15.94;100.00;95995.06;4916293;29;20464;-73
2021/08/20 06:25:07;;;;;;;2.53;1.33;;;;;;;16.10;100.00;95992.88;4934168;29;20964;-73
2021/08/20 06:27:33;;;;;;;2.55;1.88;;;;;;;16.25;100.00;95995.22;4936290;29;20522;-73
2021/08/20 06:29:58;;;;;;;3.77;1.87;;;;;;;16.36;100.00;95995.16;4936469;29;20505;-74
2021/08/20 06:32:25;;;;;;;1.98;1.77;;;;;;;16.47;100.00;95995.09;4935238;29;20427;-74
2021/08/20 06:34:51;;;;;;;3.38;2.22;;;;;;;16.54;100.00;95998.88;4936611;29;20450;-74
2021/08/20 06:37:16;;;;;;;2.00;1.80;;;;;;;16.68;100.00;95990.69;4935029;29;20949;-74
2021/08/20 06:39:41;;;;;;;3.40;2.10;;;;;;;16.82;100.00;95994.78;4936398;29;20518;-72
2021/08/20 06:42:07;;;;;;;4.60;2.00;;;;;;;16.87;100.00;95994.41;4936059;29;20427;-72
2021/08/20 06:44:32;;;;;;;5.60;2.40;;;;;;;16.88;99.18;95994.28;4936283;29;20427;-72
2021/08/20 06:46:58;;;;;;;2.93;2.30;;;;;;;16.98;99.05;96002.16;4935990;29;20838;-74
2021/08/20 06:49:25;;;;;;;3.87;2.80;;;;;;;17.11;98.30;95997.56;4934814;29;20486;-74
2021/08/20 06:51:50;;;;;;;3.47;2.78;;;;;;;17.21;97.63;96002.84;4936136;29;20446;-75
2021/08/20 06:54:15;;;;;;;2.80;2.53;;;;;;;17.22;98.30;96009.72;4923326;29;20508;-72
2021/08/20 06:56:41;;;;;;;4.73;2.70;;;;;;;17.38;96.57;96001.38;4915295;29;20448;-73
2021/08/20 06:59:06;;;;;;;3.40;3.10;;;;;;;17.15;97.49;95996.34;4917163;29;20440;-75
2021/08/20 07:01:32;;;;;;;3.22;2.65;;;;;;;16.97;99.44;95995.28;4915798;29;20429;-74
2021/08/20 07:03:59;;;;;;;4.17;2.90;;;;;;;17.07;99.95;95998.78;4916015;29;20493;-74
2021/08/20 07:06:27;;;;;;;4.30;3.20;;;;;;;17.09;99.06;96001.25;4916862;29;20935;-75
2021/08/20 07:08:55;;;;;;;6.03;3.38;;;;;;;17.37;98.42;96003.19;4917241;29;20448;-74
2021/08/20 07:11:21;;;;;;;5.78;3.65;;;;;;;17.54;96.28;95999.13;4916031;29;20518;-74
2021/08/20 07:13:47;;;;;;;4.78;3.50;;;;;;;17.51;95.02;96009.03;4918239;29;20439;-74
2021/08/20 07:16:13;;;;;;;4.00;3.00;;;;;;;17.63;95.12;96000.09;4937049;29;20459;-73
2021/08/20 07:18:39;;;;;;;5.00;3.22;;;;;;;17.85;94.17;96002.50;4936337;29;20427;-75
2021/08/20 07:21:05;;;;;;;6.88;3.95;;;;;;;18.07;93.02;96008.47;4936145;29;20989;-74
2021/08/20 07:23:32;;;;;;;4.35;3.72;;;;;;;18.13;91.75;96003.53;4935452;29;20945;-74
2021/08/20 07:25:59;;;;;;;6.70;4.05;;;;;;;18.20;91.27;96000.34;4935586;29;20427;-74
2021/08/20 07:28:26;;;;;;;5.22;3.92;;;;;;;18.21;90.68;95999.41;4935576;29;20842;-74
2021/08/20 07:30:51;;;;;;;3.80;3.40;;;;;;;18.30;90.29;95999.38;4934288;29;20431;-74
2021/08/20 07:33:17;;;;;;;4.20;3.53;;;;;;;18.49;87.71;95998.53;4935386;29;20464;-74
2021/08/20 07:35:42;;;;;;;3.67;3.20;;;;;;;18.61;90.14;96000.06;4935446;29;20443;-73
2021/08/20 07:38:07;;;;;;;8.20;4.00;;;;;;;18.57;86.40;95998.66;4934111;29;20427;-74
2021/08/20 07:40:34;;;;;;;6.78;4.80;;;;;;;18.46;88.60;96004.06;4935469;29;20506;-75
2021/08/20 07:43:00;;;;;;;8.05;5.68;;;;;;;18.47;86.88;96002.28;4934255;29;20451;-75
2021/08/20 07:45:25;;;;;;;8.00;5.53;;;;;;;18.60;87.23;96003.63;4928921;29;20870;-75
2021/08/20 07:47:51;;;;;;;6.13;5.40;;;;;;;18.46;87.72;96011.09;4934090;29;20450;-74
2021/08/20 07:50:16;;;;;;;8.02;5.38;;;;;;;18.40;87.04;96006.44;4935056;29;20432;-75
2021/08/20 07:52:44;;;;;;;7.10;4.50;;;;;;;18.52;87.13;96014.00;4934690;29;20438;-74
2021/08/20 07:55:11;;;;;;;6.53;4.32;;;;;;;18.62;86.17;96009.59;4915463;29;21303;-75
2021/08/20 07:57:46;;;;;;;4.82;4.28;;;;;;;18.89;86.67;96012.47;4919221;29;20493;-75
2021/08/20 08:00:12;;;;;;;6.32;4.47;;;;;;;18.99;84.59;96014.09;4933548;29;20423;-75
2021/08/20 08:02:38;;;;;;;9.88;4.85;;;;;;;18.85;83.33;96014.53;4928786;29;21052;-74
2021/08/20 08:05:04;;;;;;;5.70;4.87;;;;;;;18.98;83.05;96024.72;4927133;29;20506;-74
2021/08/20 08:07:29;;;;;;;5.47;4.90;;;;;;;18.96;83.22;96011.75;4934812;29;20435;-73
2021/08/20 08:09:55;;;;;;;5.77;4.70;;;;;;;19.22;81.94;96024.25;4934773;29;20921;-74
2021/08/20 08:12:20;;;;;;;7.23;4.57;;;;;;;19.21;82.98;96015.56;4934522;29;20428;-74
2021/08/20 08:14:47;;;;;;;7.38;5.25;;;;;;;18.86;82.27;96021.44;4934734;29;20424;-74
2021/08/20 08:17:12;;;;;;;10.02;5.28;;;;;;;18.96;81.55;96024.88;4933143;29;20463;-74
2021/08/20 08:19:38;;;;;;;5.93;4.73;;;;;;;19.27;81.07;96022.84;4934852;29;20854;-74
2021/08/20 08:22:03;;;;;;;7.35;4.75;;;;;;;19.49;80.85;96023.47;4934177;29;20905;-74
2021/08/20 08:24:29;;;;;;;6.03;4.22;;;;;;;19.88;77.72;96023.31;4920435;29;20508;-74
2021/08/20 08:26:55;;;;;;;5.40;4.03;;;;;;;20.24;74.91;96026.78;4913262;29;20436;-74
2021/08/20 08:29:20;;;;;;;5.00;3.83;;;;;;;20.22;74.67;96034.00;4915196;29;20421;-74
2021/08/20 08:31:47;;;;;;;7.20;3.90;;;;;;;20.49;73.23;96027.84;4915084;29;20487;-74
2021/08/20 08:34:13;;;;;;;5.32;3.95;;;;;;;20.33;74.48;96025.91;4915140;29;21110;-74
2021/08/20 08:36:38;;;;;;;3.97;3.57;;;;;;;20.85;73.18;96025.22;4913673;29;20429;-72
2021/08/20 08:39:04;;;;;;;6.25;4.10;;;;;;;21.43;74.07;96033.34;4915157;29;20524;-72
2021/08/20 08:41:31;;;;;;;5.05;3.90;;;;;;;21.09;68.36;96029.81;4914993;29;20420;-74
2021/08/20 08:43:57;;;;;;;6.78;3.88;;;;;;;20.55;69.35;96032.53;4914949;29;20836;-74
2021/08/20 08:46:23;;;;;;;5.68;3.35;;;;;;;20.60;68.23;96032.91;4914793;29;20485;-75
2021/08/20 08:48:50;;;;;;;4.60;3.25;;;;;;;20.68;68.41;96027.69;4914954;29;20437;-74
2021/08/20 08:51:18;;;;;;;5.00;3.50;;;;;;;20.40;69.74;96026.94;4914096;29;20434;-75
2021/08/20 08:53:43;;;;;;;3.60;3.08;;;;;;;20.29;68.38;96027.19;4921844;29;20420;-74
2021/08/20 08:56:08;;;;;;;5.78;3.63;;;;;;;19.92;70.78;96022.84;4932387;29;20454;-74
2021/08/20 08:58:34;;;;;;;4.47;3.70;;;;;;;19.80;72.38;96027.50;4933830;29;20849;-75
2021/08/20 09:00:59;;;;;;;3.30;3.00;;;;;;;19.44;74.15;96025.69;4933749;29;21002;-74
2021/08/20 09:03:27;;;;;;;5.88;4.00;;;;;;;19.49;76.50;96021.66;4932994;29;20435;-74
2021/08/20 09:05:55;;;;;;;4.28;3.40;;;;;;;19.66;72.74;96022.72;4932751;29;20432;-75
2021/08/20 09:08:22;;;;;;;6.78;3.65;;;;;;;20.13;70.17;96024.38;4934230;29;20435;-74
2021/08/20 09:10:50;;;;;;;4.55;3.38;;;;;;;20.59;68.88;96018.09;4933765;29;20438;-75
2021/08/20 09:13:21;;;;;;;4.13;3.08;;;;;;;20.81;66.44;96022.06;4964658;23;20439;-75
2021/08/20 09:16:35;;;;;;;11.50;3.22;;;;;;;21.22;67.35;96017.88;4932408;29;20435;-73
2021/08/20 09:19:23;;;;;;;4.97;3.30;;;;;;;21.06;63.70;96017.75;4893703;29;20453;-75
2021/08/20 09:21:56;;;;;;;4.70;3.38;;;;;;;21.17;64.44;96022.81;4902752;29;20450;-75
2021/08/20 09:24:45;;;;;;;3.78;2.80;;;;;;;20.56;64.62;96021.03;4921285;29;20433;-74
2021/08/20 09:27:32;;;;;;;6.20;3.53;;;;;;;20.27;66.24;96024.69;4914738;29;20429;-73
2021/08/20 09:30:18;;;;;;;5.38;3.25;;;;;;;20.09;67.80;96026.47;4913492;29;20915;-73
2021/08/20 09:32:45;;;;;;;4.35;3.00;;;;;;;20.08;69.45;96026.63;4914679;29;20848;-73
2021/08/20 09:35:11;;;;;;;4.63;3.10;;;;;;;19.95;69.15;96024.34;4914332;29;20435;-75
2021/08/20 09:37:38;;;;;;;3.63;2.73;;;;;;;19.87;69.14;96021.63;4916906;29;21135;-75
2021/08/20 09:40:08;;;;;;;7.97;2.95;;;;;;;19.90;68.70;96024.78;4918286;29;20484;-73
2021/08/20 09:42:34;;;;;;;2.67;2.47;;;;;;;19.98;69.87;96021.41;4916689;29;20437;-74
2021/08/20 09:45:15;;;;;;;3.58;2.85;;;;;;;20.37;66.51;96021.16;4916946;29;20421;-74
2021/08/20 09:47:42;;;;;;;3.37;2.60;;;;;;;20.76;64.52;96022.53;4918104;29;20561;-74
2021/08/20 09:50:08;;;;;;;6.30;3.20;;;;;;;21.59;63.72;96022.06;4916996;29;20844;-75
2021/08/20 09:52:33;;;;;;;3.37;2.97;;;;;;;21.80;62.16;96023.44;4918206;29;20429;-75
2021/08/20 09:55:00;;;;;;;3.63;2.70;;;;;;;21.72;63.21;96018.97;4917831;29;20520;-75
2021/08/20 09:57:27;;;;;;;3.70;2.83;;;;;;;21.98;61.34;96017.06;4917860;29;20927;-75
2021/08/20 09:59:54;;;;;;;2.50;2.30;;;;;;;22.52;62.62;96021.16;4916697;29;20425;-76
2021/08/20 10:02:23;;;;;;;3.70;2.50;;;;;;;22.76;58.50;96013.22;4916691;29;20876;-76
2021/08/20 10:04:48;;;;;;;2.90;2.30;;;;;;;22.57;57.85;96016.19;4917983;29;20519;-76
2021/08/20 10:07:17;;;;;;;7.03;2.70;;;;;;;22.23;57.10;96022.44;4916519;29;20460;-76
2021/08/20 10:09:45;;;;;;;2.88;2.20;;;;;;;22.13;57.70;96021.72;4916764;29;20451;-75
2021/08/20 10:12:17;;;;;;;2.63;2.42;;;;;;;21.71;58.48;96018.13;4916281;29;20788;-75
2021/08/20 10:14:45;;;;;;;5.85;2.70;;;;;;;21.74;62.66;96017.00;4917766;29;20460;-75
2021/08/20 10:17:10;;;;;;;6.07;2.65;;;;;;;21.76;65.47;96022.94;4917610;29;20428;-75
2021/08/20 10:19:37;;;;;;;4.47;2.58;;;;;;;21.31;65.30;96016.09;4917740;29;20475;-74
2021/08/20 10:22:05;;;;;;;3.70;2.60;;;;;;;20.96;65.09;96014.44;4917257;29;20437;-74
2021/08/20 10:24:31;;;;;;;3.20;2.50;;;;;;;20.95;65.68;96018.03;4917333;29;20431;-74
2021/08/20 10:27:00;;;;;;;3.05;2.75;;;;;;;20.94;65.83;96017.19;4917462;29;20944;-74
2021/08/20 10:29:30;;;;;;;3.63;2.72;;;;;;;21.80;63.25;96024.25;4917520;29;20919;-74
2021/08/20 10:31:56;;;;;;;5.00;3.00;;;;;;;21.74;64.98;96015.19;4916097;29;20438;-75
2021/08/20 10:34:32;;;;;;;7.13;2.83;;;;;;;22.22;64.92;96021.63;4917295;29;20429;-74
2021/08/20 10:37:05;;;;;;;7.07;2.63;;;;;;;21.85;61.90;96018.53;4916517;29;20932;-74
2021/08/20 10:39:30;;;;;;;3.20;2.55;;;;;;;21.73;60.28;96023.28;4934835;29;20454;-74
2021/08/20 10:42:03;;;;;;;3.53;2.63;;;;;;;22.05;64.57;96016.44;4936109;29;20809;-74
2021/08/20 10:44:34;;;;;;;5.28;3.10;;;;;;;22.40;63.65;96010.09;4935118;29;21155;-74
2021/08/20 10:47:00;;;;;;;5.22;2.88;;;;;;;21.68;59.06;96017.63;4934659;29;20432;-74
2021/08/20 10:49:26;;;;;;;4.03;3.20;;;;;;;21.38;62.01;96013.72;4935329;29;20513;-76
2021/08/20 10:51:59;;;;;;;3.13;2.50;;;;;;;21.16;60.73;96015.84;4934964;29;20487;-76
2021/08/20 10:54:58;;;;;;;4.80;2.53;;;;;;;21.42;62.27;96018.50;4923086;29;20433;-75
2021/08/20 10:57:52;;;;;;;3.58;2.53;;;;;;;21.64;60.39;96011.03;4915491;29;20437;-75
2021/08/20 11:00:25;;;;;;;3.15;2.58;;;;;;;21.95;59.04;96014.78;4916914;29;20429;-75
2021/08/20 11:02:51;;;;;;;3.80;2.72;;;;;;;;;;4919861;29;20426;-75
2021/08/20 11:05:19;;;;;;;4.80;2.28;;;;;;;21.63;59.66;96007.56;4935938;29;20427;-77
2021/08/20 11:07:45;;;;;;;3.55;2.78;;;;;;;22.28;60.87;96009.56;4934687;29;20427;-76
2021/08/20 11:10:32;;;;;;;4.17;2.67;;;;;;;22.59;58.89;95998.41;4936037;29;20511;-77
2021/08/20 11:13:00;;;;;;;6.00;2.63;;;;;;;22.79;63.73;96007.63;4934709;29;20507;-76
2021/08/20 11:15:44;;;;;;;5.53;2.90;;;;;;;23.15;60.84;96005.47;4934679;29;20441;-75
2021/08/20 11:18:09;;;;;;;4.47;2.63;;;;;;;22.40;56.37;96012.75;4935708;29;20939;-75
2021/08/20 11:20:36;;;;;;;3.47;2.57;;;;;;;22.08;56.98;96010.84;4935684;29;20428;-75
2021/08/20 11:23:16;;;;;;;4.40;2.95;;;;;;;22.05;56.08;96006.69;4934455;29;20427;-76
2021/08/20 11:25:43;;;;;;;2.95;2.55;;;;;;;22.22;57.89;96010.25;4934407;29;20431;-76
2021/08/20 11:28:17;;;;;;;6.30;2.38;;;;;;;22.12;56.03;96014.81;4935603;29;20427;-75